Time;durP1;ratioP1;P1;durP2;ratioP2;P2;SDS_P1;SDS_P2;PMS_P1;PMS_P2;Temp;Humidity;BMP_temperature;BMP_pressure;BME280_temperature;BME280_humidity;BME280_pressure;Samples;Min_cycle;Max_cycle;Signal;HPM_P1;HPM_P2
2023/03/04 17:35:50;;;;;;;22.87;15.30;;;4.80;99.90;;;;;;5069289;27;20548;-81
2023/03/04 17:38:16;;;;;;;22.83;13.33;;;4.60;99.90;;;;;;5067692;28;20246;-82
2023/03/04 17:40:42;;;;;;;18.50;10.40;;;4.60;99.90;;;;;;5067374;28;20169;-81
2023/03/04 17:43:10;;;;;;;20.97;16.03;;;4.60;99.90;;;;;;5067483;28;20273;-81
2023/03/04 17:45:38;;;;;;;28.93;18.57;;;4.60;99.90;;;;;;5067563;28;20547;-81
2023/03/04 17:51:44;;;;;;;16.97;9.83;;;4.60;99.90;;;;;;5068887;28;20162;-81
2023/03/04 17:54:40;;;;;;;14.63;11.03;;;4.60;99.90;;;;;;5067255;28;20579;-81
2023/03/04 17:57:08;;;;;;;15.57;11.70;;;4.60;99.90;;;;;;5068876;28;20201;-83
2023/03/04 17:59:43;;;;;;;17.33;10.53;;;4.60;99.90;;;;;;5068240;28;20154;-81
2023/03/04 18:05:44;;;;;;;15.93;11.70;;;4.60;99.90;;;;;;5066865;28;20227;-82
2023/03/04 18:08:10;;;;;;;20.43;13.83;;;4.60;99.90;;;;;;5065974;28;20269;-82
2023/03/04 18:10:44;;;;;;;15.63;10.00;;;4.60;99.90;;;;;;5067296;28;20269;-82
2023/03/04 18:13:32;;;;;;;14.30;9.70;;;4.70;99.90;;;;;;5067451;28;20635;-82
2023/03/04 18:15:57;;;;;;;16.43;9.27;;;4.60;99.90;;;;;;5066462;27;20209;-82
2023/03/04 18:18:23;;;;;;;15.27;8.50;;;4.70;99.90;;;;;;5067459;27;20187;-82
2023/03/04 18:21:40;;;;;;;16.87;8.50;;;4.60;99.90;;;;;;5067183;27;20178;-82
2023/03/04 18:27:33;;;;;;;16.10;9.50;;;4.60;99.90;;;;;;5067621;28;20215;-81
2023/03/04 18:30:26;;;;;;;13.00;8.90;;;4.60;99.90;;;;;;5066029;28;20182;-82
2023/03/04 18:33:13;;;;;;;11.23;8.47;;;4.60;99.90;;;;;;5067068;27;20178;-82
2023/03/04 18:35:39;;;;;;;18.13;13.53;;;4.60;99.90;;;;;;5066721;28;20193;-82
2023/03/04 18:38:10;;;;;;;10.47;8.93;;;4.60;99.90;;;;;;5066845;28;20203;-82
2023/03/04 18:41:11;;;;;;;14.10;8.97;;;4.60;99.90;;;;;;5067192;27;20193;-82
2023/03/04 18:43:38;;;;;;;18.23;9.53;;;4.60;99.90;;;;;;5065287;28;20162;-82
2023/03/04 18:46:06;;;;;;;13.27;8.23;;;4.60;99.90;;;;;;5058223;28;20220;-82
2023/03/04 18:48:36;;;;;;;13.03;9.07;;;4.60;99.90;;;;;;5051906;28;20216;-82
2023/03/04 18:51:42;;;;;;;13.07;8.90;;;4.70;99.90;;;;;;5052376;28;20170;-82
2023/03/04 18:54:40;;;;;;;14.13;7.87;;;4.70;99.90;;;;;;5051874;28;20170;-82
2023/03/04 18:57:53;;;;;;;15.00;8.83;;;4.60;99.90;;;;;;5051610;28;20206;-82
2023/03/04 19:00:25;;;;;;;17.27;8.73;;;4.60;99.90;;;;;;5052341;28;20245;-82
2023/03/04 19:02:59;;;;;;;12.57;7.73;;;4.60;99.90;;;;;;5052248;28;20201;-82
2023/03/04 19:05:40;;;;;;;13.53;9.40;;;4.60;99.90;;;;;;5052181;28;20202;-82
2023/03/04 19:08:06;;;;;;;13.40;9.23;;;4.50;99.90;;;;;;5051539;28;20624;-82
2023/03/04 19:10:31;;;;;;;13.10;8.27;;;4.60;99.90;;;;;;5051868;28;20266;-82
2023/03/04 19:16:20;;;;;;;16.40;8.83;;;4.50;99.90;;;;;;5052883;28;20277;-82
2023/03/04 19:22:07;;;;;;;28.70;17.60;;;4.50;99.90;;;;;;5052437;28;20162;-82
2023/03/04 19:24:34;;;;;;;20.37;14.77;;;4.50;99.90;;;;;;5052122;28;20210;-82
2023/03/04 19:27:00;;;;;;;20.03;12.80;;;4.40;99.90;;;;;;5050931;28;20194;-83
2023/03/04 19:29:42;;;;;;;15.23;10.33;;;4.50;99.90;;;;;;5050944;28;20174;-82
2023/03/04 19:32:16;;;;;;;15.53;10.13;;;4.50;99.90;;;;;;5051979;28;20210;-82
2023/03/04 19:34:42;;;;;;;19.67;11.33;;;4.40;99.90;;;;;;5052001;28;20210;-82
2023/03/04 19:37:08;;;;;;;21.93;11.57;;;4.40;99.90;;;;;;5051303;28;20202;-82
2023/03/04 19:39:34;;;;;;;29.63;15.97;;;4.40;99.90;;;;;;5052121;28;20281;-82
2023/03/04 19:42:00;;;;;;;30.23;20.10;;;4.40;99.90;;;;;;5051368;28;20217;-82
2023/03/04 19:44:25;;;;;;;20.27;13.33;;;4.40;99.90;;;;;;5050957;28;20236;-82
2023/03/04 19:47:03;;;;;;;18.67;12.90;;;4.40;99.90;;;;;;5051381;28;20205;-82
2023/03/04 19:49:51;;;;;;;20.77;13.13;;;4.50;99.90;;;;;;5051023;28;20219;-82
2023/03/04 19:52:18;;;;;;;24.03;16.40;;;4.50;99.90;;;;;;5051532;28;20245;-82
2023/03/04 19:54:44;;;;;;;21.13;14.73;;;4.50;99.90;;;;;;5051788;28;20173;-82
2023/03/04 19:57:13;;;;;;;29.00;19.93;;;4.50;99.90;;;;;;5050358;28;20229;-82
2023/03/04 19:59:38;;;;;;;16.47;11.10;;;4.50;99.90;;;;;;5051420;28;20186;-82
2023/03/04 20:02:31;;;;;;;15.23;11.43;;;4.50;99.90;;;;;;5050970;28;20189;-82
2023/03/04 20:04:57;;;;;;;10.90;7.10;;;4.50;99.90;;;;;;5050599;28;20194;-82
2023/03/04 20:07:25;;;;;;;6.53;5.73;;;4.50;99.90;;;;;;5050360;28;20206;-82
2023/03/04 20:09:53;;;;;;;9.70;4.87;;;4.40;99.90;;;;;;5050659;28;20566;-82
2023/03/04 20:12:19;;;;;;;3.70;2.97;;;4.50;99.90;;;;;;5050361;28;20174;-82
2023/03/04 20:22:05;;;;;;;6.77;2.70;;;4.30;99.90;;;;;;5051511;28;20199;-82
2023/03/04 20:24:34;;;;;;;4.10;2.53;;;4.20;99.90;;;;;;5050234;28;20274;-82
2023/03/04 20:27:02;;;;;;;5.00;2.80;;;4.20;99.90;;;;;;5050074;28;20206;-82
2023/03/04 20:29:31;;;;;;;6.90;2.80;;;4.20;99.90;;;;;;5051213;28;20174;-82
2023/03/04 20:31:57;;;;;;;8.73;2.83;;;4.10;99.90;;;;;;5050199;28;20194;-82
2023/03/04 20:34:24;;;;;;;4.80;2.90;;;4.10;99.90;;;;;;5050590;28;20259;-82
2023/03/04 20:40:40;;;;;;;6.43;3.40;;;4.10;99.90;;;;;;5051218;28;20169;-82
2023/03/04 20:43:22;;;;;;;5.03;2.87;;;4.00;99.90;;;;;;5050527;28;20194;-82
2023/03/04 20:45:51;;;;;;;4.67;3.13;;;4.00;99.90;;;;;;5050844;28;20263;-82
2023/03/04 20:51:50;;;;;;;5.23;3.10;;;3.90;99.90;;;;;;5051065;28;20181;-82
2023/03/04 20:54:16;;;;;;;4.60;2.80;;;3.90;99.90;;;;;;5033010;28;20182;-82
2023/03/04 20:57:12;;;;;;;6.63;2.90;;;4.00;99.90;;;;;;5049876;28;20209;-83
2023/03/04 20:59:40;;;;;;;5.77;2.87;;;4.00;99.90;;;;;;5050017;28;20170;-83
2023/03/04 21:02:08;;;;;;;3.53;2.93;;;3.90;99.90;;;;;;5051395;28;20159;-83
2023/03/04 21:05:33;;;;;;;6.83;3.20;;;4.00;99.90;;;;;;5049974;28;20198;-83
2023/03/04 21:12:25;;;;;;;6.73;3.20;;;3.90;99.90;;;;;;5050967;28;20169;-82
2023/03/04 21:14:51;;;;;;;5.03;2.90;;;3.90;99.90;;;;;;5051066;28;20190;-82
2023/03/04 21:17:30;;;;;;;3.07;2.63;;;3.90;99.90;;;;;;5049826;28;20198;-82
2023/03/04 21:19:55;;;;;;;5.00;3.67;;;3.90;99.90;;;;;;5049537;28;20173;-83
2023/03/04 21:22:25;;;;;;;7.40;3.50;;;4.00;99.90;;;;;;5049753;28;20186;-83
2023/03/04 21:24:53;;;;;;;5.97;3.23;;;3.90;99.90;;;;;;5049709;28;20377;-82
2023/03/04 21:27:19;;;;;;;6.30;3.47;;;4.00;99.90;;;;;;5050053;28;20656;-82
2023/03/04 21:29:48;;;;;;;7.80;3.27;;;3.90;99.90;;;;;;5049529;28;20307;-83
2023/03/04 21:35:27;;;;;;;43.60;26.43;;;3.90;99.90;;;;;;5050381;28;20194;-83
2023/03/04 21:38:26;;;;;;;12.87;7.37;;;3.90;99.90;;;;;;5049153;28;20190;-83
2023/03/04 21:41:48;;;;;;;85.33;43.47;;;3.90;99.90;;;;;;5049187;28;20178;-83
2023/03/04 21:44:14;;;;;;;40.37;24.20;;;4.00;99.90;;;;;;5049588;28;20198;-83
2023/03/04 21:47:36;;;;;;;24.40;14.87;;;3.90;99.90;;;;;;5049104;28;20218;-83
2023/03/04 21:50:25;;;;;;;11.87;8.77;;;3.90;99.90;;;;;;5050679;28;20184;-83
2023/03/04 21:53:20;;;;;;;14.80;9.67;;;3.90;99.90;;;;;;5047550;27;20179;-82
2023/03/04 21:56:08;;;;;;;14.10;9.50;;;3.80;99.90;;;;;;5049246;28;20259;-83
2023/03/04 22:05:18;;;;;;;4.03;3.57;;;3.80;99.90;;;;;;5050063;28;20194;-81
2023/03/04 22:07:43;;;;;;;8.53;4.27;;;3.90;99.90;;;;;;5049187;27;20194;-82
2023/03/04 22:10:46;;;;;;;4.43;3.07;;;3.90;99.90;;;;;;5049126;28;20179;-82
2023/03/04 22:13:14;;;;;;;5.00;2.60;;;3.80;99.90;;;;;;5049670;28;20569;-82
2023/03/04 22:15:42;;;;;;;6.10;2.60;;;3.80;99.90;;;;;;5048658;28;20246;-82
2023/03/04 22:18:10;;;;;;;5.10;2.80;;;3.80;99.90;;;;;;5049012;28;20170;-82
2023/03/04 22:20:39;;;;;;;3.57;2.80;;;3.80;99.90;;;;;;5049133;28;20178;-82
2023/03/04 22:23:05;;;;;;;5.63;2.50;;;3.80;99.90;;;;;;5052269;28;20178;-82
2023/03/04 22:25:42;;;;;;;5.73;3.27;;;3.70;99.90;;;;;;5051841;28;20202;-83
2023/03/04 22:28:07;;;;;;;11.27;7.60;;;3.70;99.90;;;;;;5052605;28;20170;-82
2023/03/04 22:30:52;;;;;;;8.43;5.23;;;3.70;99.90;;;;;;5051977;28;20193;-82
2023/03/04 22:33:17;;;;;;;6.40;2.87;;;3.70;99.90;;;;;;5052695;28;20197;-83
2023/03/04 22:35:43;;;;;;;8.00;3.43;;;3.60;99.90;;;;;;5051823;28;20197;-83
2023/03/04 22:38:08;;;;;;;6.30;2.90;;;3.60;99.90;;;;;;5051894;28;20245;-82
2023/03/04 22:40:34;;;;;;;7.57;3.70;;;3.60;99.90;;;;;;5052140;28;20652;-82
2023/03/04 22:42:59;;;;;;;10.40;4.70;;;3.50;99.90;;;;;;5051839;28;20207;-82
2023/03/04 22:45:40;;;;;;;9.43;3.40;;;3.50;99.90;;;;;;5051799;28;20240;-82
2023/03/04 22:48:25;;;;;;;12.87;6.90;;;3.40;99.90;;;;;;5051995;28;20207;-82
2023/03/04 22:50:51;;;;;;;9.07;5.10;;;3.40;99.90;;;;;;5051745;28;20694;-82
2023/03/04 22:53:17;;;;;;;11.73;5.30;;;3.30;99.90;;;;;;5052104;28;20202;-82
2023/03/04 22:55:46;;;;;;;7.30;4.40;;;3.20;99.90;;;;;;5052898;28;20261;-82
2023/03/04 22:58:14;;;;;;;10.10;4.20;;;3.20;99.90;;;;;;5051082;28;20197;-82
2023/03/04 23:00:40;;;;;;;14.50;6.33;;;3.10;99.90;;;;;;5051419;28;20178;-82
2023/03/04 23:03:45;;;;;;;13.70;7.87;;;3.20;99.90;;;;;;5051460;28;20189;-82
2023/03/04 23:06:37;;;;;;;10.73;6.03;;;3.20;99.90;;;;;;5052409;28;20198;-84
2023/03/04 23:09:03;;;;;;;13.33;6.57;;;3.20;99.90;;;;;;5052270;28;20167;-82
2023/03/04 23:11:31;;;;;;;9.80;4.53;;;3.20;99.90;;;;;;5051377;28;20185;-82
2023/03/04 23:14:05;;;;;;;7.87;3.50;;;3.20;99.90;;;;;;5051304;28;20178;-82
2023/03/04 23:16:37;;;;;;;7.60;4.20;;;3.20;99.90;;;;;;5051596;28;20242;-82
2023/03/04 23:19:07;;;;;;;7.50;3.50;;;3.20;99.90;;;;;;5051299;28;20198;-82
2023/03/04 23:21:34;;;;;;;7.17;3.70;;;3.20;99.90;;;;;;5051300;28;20174;-82
2023/03/04 23:24:45;;;;;;;8.80;3.67;;;3.20;99.90;;;;;;5051071;28;20297;-82
2023/03/04 23:27:30;;;;;;;10.23;3.87;;;3.10;99.90;;;;;;5051708;28;20294;-82
2023/03/04 23:29:55;;;;;;;6.73;3.43;;;3.10;99.90;;;;;;5051201;28;20174;-82
2023/03/04 23:32:21;;;;;;;4.97;3.57;;;3.10;99.90;;;;;;5051251;28;20178;-82
2023/03/04 23:34:51;;;;;;;5.97;2.60;;;3.10;99.90;;;;;;5051111;28;20202;-82
2023/03/04 23:37:20;;;;;;;4.23;2.57;;;3.10;99.90;;;;;;5050900;28;20198;-82
2023/03/04 23:39:46;;;;;;;7.77;2.83;;;3.20;99.90;;;;;;5051371;28;20175;-82
2023/03/04 23:45:40;;;;;;;8.20;2.30;;;3.20;99.90;;;;;;5052011;28;20200;-82
2023/03/04 23:51:35;;;;;;;5.83;2.60;;;3.20;99.90;;;;;;5052032;28;20162;-82
2023/03/04 23:54:07;;;;;;;5.00;2.43;;;3.20;99.90;;;;;;5051814;28;20203;-82
2023/03/04 23:56:32;;;;;;;5.97;1.80;;;3.10;99.90;;;;;;5050917;28;20202;-82
